Latest Weather Observations for Bombala AWS

IDN60801

Issued at 9:05 pm EDT Saturday 22 November 2014 (issued every 30 minutes, with the page automatically refreshed every 10 minutes)

About weather observations | Map of weather stations | Latest weather observations for NSW | Other Formats
Station Details ID: 070328 Name: BOMBALA AWS Lat: -37.00 Lon: 149.23 Height: 760.5 m
Data from the previous 72 hours. | See also: Recent months at Bombala AWS
Date/Time
EDT
Temp
°C
App
Temp
°C
Dew
Point
Rel
Hum
%
Delta-T
°C
Wind Press
QNH
hPa
Press
MSL
hPa
Rain
since 9 am
mm
Dir
 
Spd
km/h
Gust
km/h
Spd
kts
Gust
kts
22/09:00pm 16.1 16.8 13.4 84 1.6 E 2 4 1 2 1013.4 1011.7 0.0
22/08:30pm 17.2 18.6 14.5 84 1.6 NNE 0 4 0 2 1013.2 1011.5 0.0
22/08:00pm 18.1 17.9 14.6 80 2.1 NNE 9 11 5 6 1013.2 1011.5 0.0
22/07:30pm 19.7 19.6 14.9 74 2.9 NE 9 11 5 6 1012.9 1011.2 0.0
22/07:00pm 20.3 19.9 15.3 73 3.1 NE 11 17 6 9 1012.8 1011.1 0.0
22/06:30pm 20.9 19.8 15.4 71 3.4 ENE 15 22 8 12 1012.4 1010.8 0.0
22/06:00pm 22.5 22.7 15.8 66 4.2 NE 9 13 5 7 1012.8 1011.1 0.0
22/05:30pm 24.0 24.5 16.5 63 4.7 NE 9 15 5 8 1012.8 1011.1 0.0
22/05:00pm 23.9 23.7 15.7 60 5.1 E 11 15 6 8 1012.4 1010.8 0.0
22/04:30pm 24.6 24.2 16.3 60 5.2 ESE 13 20 7 11 1012.6 1010.9 0.0
22/04:00pm 24.9 24.2 16.3 59 5.4 ESE 15 20 8 11 1012.7 1011.0 0.0
22/03:30pm 25.6 24.9 17.3 60 5.3 ESE 17 24 9 13 1012.8 1011.1 0.0
22/03:00pm 25.1 23.0 13.6 49 7.0 SE 17 30 9 16 1012.9 1011.2 0.0
22/02:30pm 28.7 25.7 7.9 27 11.7 W 13 24 7 13 1012.6 1010.9 0.0
22/02:00pm 27.7 23.8 7.0 27 11.4 WNW 17 28 9 15 1012.8 1011.1 0.0
22/01:30pm 27.7 23.5 7.5 28 11.2 WNW 19 30 10 16 1013.1 1011.4 0.0
22/01:00pm 26.5 22.0 6.0 27 11.0 NW 19 33 10 18 1013.2 1011.5 0.0
22/12:30pm 25.9 21.9 6.5 29 10.5 NW 17 30 9 16 1013.4 1011.7 0.0
22/12:00pm 25.2 22.0 6.9 31 9.9 NW 13 30 7 16 1013.6 1012.0 0.0
22/11:30am 24.4 22.0 8.8 37 8.7 N 11 19 6 10 1014.0 1012.3 0.0
22/11:00am 23.1 20.2 10.9 46 7.0 NNW 17 24 9 13 1013.8 1012.2 0.0
22/10:30am 22.9 21.2 12.5 52 6.1 NNW 13 19 7 10 1014.2 1012.5 0.0
22/10:00am 20.8 18.6 12.2 58 5.0 NNW 15 22 8 12 1014.5 1012.8 0.0
22/09:30am 19.8 18.1 13.5 67 3.7 N 15 19 8 10 1014.7 1013.1 0.0
22/09:00am 17.6 17.4 14.7 83 1.7 N 9 13 5 7 1014.9 1013.3 0.0
22/08:30am 16.7 15.3 13.4 81 1.9 N 13 20 7 11 1015.0 1013.4 0.0
22/08:00am 14.5 13.7 13.9 96 0.3 N 11 15 6 8 1015.0 1013.4 0.0
22/07:30am 14.1 12.9 13.9 99 0.1 N 13 15 7 8 1015.1 1013.5 0.0
22/07:00am 13.4 12.4 13.4 100 0.0 NNE 11 15 6 8 1015.0 1013.4 0.0
22/06:30am 12.5 11.6 12.5 100 0.0 NNE 9 13 5 7 1014.6 1012.9 0.0
22/06:00am 11.7 11.1 11.7 100 0.0 NE 6 7 3 4 1014.7 1013.1 0.0
22/05:30am 11.1 10.3 11.1 100 0.0 NE 6 6 3 3 1014.6 1012.9 0.0
22/05:00am 10.0 9.7 10.0 100 0.0 NE 2 6 1 3 1014.6 1012.9 0.0
22/04:30am 10.7 10.9 10.7 100 0.0 CALM 0 0 0 0 1014.6 1012.9 0.0
22/04:00am 10.2 10.3 10.2 100 0.0 CALM 0 0 0 0 1014.4 1012.7 0.0
22/03:30am 10.6 10.4 10.6 100 0.0 NE 2 4 1 2 1014.6 1012.9 0.0
22/03:00am 9.6 8.8 9.6 100 0.0 ESE 4 6 2 3 1014.8 1013.2 0.0
22/02:30am 10.4 9.8 10.4 100 0.0 SSE 4 4 2 2 1014.8 1013.2 0.0
22/02:00am 10.6 9.7 10.6 100 0.0 SSE 6 6 3 3 1015.1 1013.5 0.0
22/01:30am 11.0 11.3 11.0 100 0.0 CALM 0 0 0 0 1015.4 1013.7 0.0
22/01:00am 11.3 11.7 11.3 100 0.0 CALM 0 0 0 0 1015.8 1014.2 0.0
22/12:30am 11.9 12.5 11.9 100 0.0 CALM 0 0 0 0 1016.1 1014.5 0.0
22/12:00am 11.7 12.2 11.7 100 0.0 SE 0 0 0 0 1016.1 1014.5 0.0
 
Date/Time
EDT
Temp
°C
App
Temp
°C
Dew
Point
Rel
Hum
%
Delta-T
°C
Wind Press
QNH
hPa
Press
MSL
hPa
Rain
since 9 am
mm
Dir
 
Spd
km/h
Gust
km/h
Spd
kts
Gust
kts
21/11:30pm 12.0 12.6 12.0 100 0.0 CALM 0 0 0 0 1016.1 1014.5 0.0
21/11:00pm 12.1 12.8 12.1 100 0.0 CALM 0 0 0 0 1016.1 1014.5 0.0
21/10:30pm 11.9 12.5 11.9 100 0.0 CALM 0 0 0 0 1016.1 1014.5 0.0
21/10:00pm 11.8 11.6 11.8 100 0.0 SSE 4 6 2 3 1015.9 1014.3 0.0
21/09:30pm 11.6 10.4 11.6 100 0.0 SSE 9 11 5 6 1015.7 1014.0 0.0
21/09:00pm 12.7 12.2 12.5 99 0.1 SE 7 13 4 7 1015.4 1013.7 0.0
21/08:30pm 13.3 12.6 13.1 99 0.1 SE 9 13 5 7 1014.7 1013.1 0.0
21/08:00pm 13.3 12.9 13.1 99 0.1 ESE 7 11 4 6 1014.1 1012.4 0.0
21/07:30pm 13.0 11.8 12.8 99 0.1 ESE 11 15 6 8 1013.6 1012.0 0.0
21/07:00pm 14.4 12.1 13.1 92 0.7 SSE 17 20 9 11 1012.8 1011.1 0.0
21/06:30pm 15.1 12.9 13.3 89 1.0 SE 17 24 9 13 1012.0 1010.3 0.0
21/06:00pm 15.6 12.6 13.8 89 1.1 SE 22 28 12 15 1011.5 1009.8 0.0
21/05:30pm 16.2 14.6 13.9 86 1.3 SE 15 20 8 11 1011.2 1009.4 0.0
21/05:00pm 17.3 15.4 15.1 87 1.3 SSE 19 24 10 13 1010.9 1009.2 0.0
21/04:30pm 16.9 14.9 15.4 91 0.9 SE 20 28 11 15 1010.4 1008.7 0.0
21/04:00pm 17.4 14.8 14.9 85 1.5 SE 22 28 12 15 1010.2 1008.5 0.0
21/03:30pm 18.3 15.5 15.4 83 1.8 SSE 24 33 13 18 1010.0 1008.2 0.0
21/03:00pm 18.4 15.4 15.8 85 1.6 SSE 26 32 14 17 1009.9 1008.1 0.0
21/02:30pm 17.6 14.4 15.2 86 1.4 SE 26 33 14 18 1009.5 1007.8 0.0
21/02:00pm 19.8 17.6 16.8 83 1.9 SE 24 35 13 19 1009.4 1007.7 0.0
21/01:30pm 23.0 23.3 17.0 69 3.8 SSE 11 20 6 11 1009.6 1007.9 0.0
21/01:00pm 24.1 21.7 12.7 49 6.8 WSW 17 22 9 12 1009.4 1007.7 0.0
21/12:30pm 24.1 19.1 11.1 44 7.5 NW 28 33 15 18 1009.3 1007.6 0.0
21/12:00pm 24.8 20.5 10.7 41 8.2 W 24 33 13 18 1009.4 1007.7 0.0
21/11:30am 23.3 19.9 11.4 47 6.9 N 20 24 11 13 1009.2 1007.5 0.0
21/11:00am 23.6 22.7 13.8 54 5.9 NW 11 22 6 12 1009.2 1007.5 0.0
21/10:30am 21.9 20.1 10.7 49 6.4 W 11 20 6 11 1009.6 1007.9 0.0
21/10:00am 21.8 20.0 12.1 54 5.7 W 13 19 7 10 1009.9 1008.1 0.0
21/09:30am 22.2 19.1 11.6 51 6.1 WSW 19 22 10 12 1009.6 1007.9 0.0
21/09:00am 20.9 20.1 11.8 56 5.3 W 7 13 4 7 1009.6 1007.9 0.2
21/08:30am 19.7 19.0 13.2 66 3.8 N 9 13 5 7 1009.3 1007.6 0.2
21/08:00am 18.4 17.8 12.4 68 3.5 NNW 7 11 4 6 1009.1 1007.4 0.2
21/07:30am 16.8 15.4 12.3 75 2.6 NW 11 15 6 8 1009.0 1007.3 0.2
21/07:00am 15.5 15.0 12.8 84 1.6 WNW 7 9 4 5 1008.5 1006.7 0.2
21/06:30am 14.0 12.4 12.7 92 0.7 NNW 13 15 7 8 1008.1 1006.4 0.2
21/06:00am 14.3 12.7 12.7 90 0.9 NW 13 19 7 10 1007.6 1005.8 0.2
21/05:30am 13.8 11.5 13.0 95 0.5 NNW 17 22 9 12 1007.3 1005.5 0.2
21/05:00am 13.9 11.3 13.3 96 0.3 NNW 19 22 10 12 1007.4 1005.6 0.2
21/04:30am 13.0 12.5 12.8 99 0.1 W 7 11 4 6 1007.3 1005.5 0.2
21/04:00am 13.8 13.4 13.0 95 0.5 NE 7 11 4 6 1007.5 1005.7 0.2
21/03:30am 13.5 13.2 13.2 98 0.2 NNE 7 11 4 6 1008.6 1006.8 0.2
21/03:00am 13.1 13.6 12.9 99 0.1 NE 2 9 1 5 1009.0 1007.3 0.2
21/02:30am 13.5 13.3 13.0 97 0.3 NNW 6 7 3 4 1009.6 1007.9 0.2
21/02:00am 13.4 13.0 13.1 98 0.2 WNW 7 13 4 7 1010.3 1008.6 0.2
21/01:30am 13.4 13.0 13.1 98 0.2 N 7 9 4 5 1010.5 1008.8 0.2
21/01:00am 14.0 13.5 12.7 92 0.7 SSW 7 13 4 7 1010.7 1009.0 0.2
21/12:30am 14.2 13.9 12.8 91 0.8 S 6 6 3 3 1010.8 1009.1 0.2
21/12:00am 14.3 13.2 13.0 92 0.7 SSE 11 15 6 8 1010.7 1009.0 0.2
 
Date/Time
EDT
Temp
°C
App
Temp
°C
Dew
Point
Rel
Hum
%
Delta-T
°C
Wind Press
QNH
hPa
Press
MSL
hPa
Rain
since 9 am
mm
Dir
 
Spd
km/h
Gust
km/h
Spd
kts
Gust
kts
20/11:30pm 15.0 13.5 12.0 82 1.7 SE 11 13 6 7 1010.9 1009.2 0.2
20/11:00pm 16.1 12.3 11.3 73 2.7 SSE 22 30 12 16 1011.2 1009.4 0.2
20/10:30pm 18.3 14.7 9.9 58 4.6 S 19 33 10 18 1011.4 1009.7 0.2
20/10:00pm 18.1 16.2 11.7 66 3.6 SE 13 19 7 10 1010.6 1008.9 0.2
20/09:30pm 18.7 17.8 11.3 62 4.2 S 7 11 4 6 1010.7 1009.0 0.2
20/09:00pm 20.1 16.0 10.2 53 5.5 SE 22 30 12 16 1009.8 1008.0 0.2
20/08:53pm 20.1 15.0 10.5 54 5.4 ESE 28 30 15 16 1009.5 1007.8 0.2
20/08:30pm 19.9 18.4 9.2 50 5.9 SE 7 11 4 6 1010.5 1008.8 0.2
20/08:00pm 19.7 16.6 9.0 50 5.9 SSE 15 17 8 9 1010.6 1008.9 0.2
20/07:30pm 21.5 18.9 6.2 37 8.0 SW 9 11 5 6 1010.4 1008.7 0.2
20/07:00pm 21.8 18.1 6.5 37 8.1 WSW 15 17 8 9 1010.1 1008.4 0.2
20/06:30pm 22.1 19.6 6.7 37 8.2 W 9 13 5 7 1009.8 1008.0 0.2
20/06:00pm 23.3 18.1 5.7 32 9.3 WNW 22 30 12 16 1009.4 1007.7 0.2
20/05:30pm 24.7 20.8 6.9 32 9.6 WNW 17 24 9 13 1009.2 1007.5 0.2
20/05:00pm 24.4 22.5 9.2 38 8.6 W 9 15 5 8 1009.4 1007.7 0.2
20/04:30pm 25.6 22.4 5.2 27 10.8 WNW 11 19 6 10 1009.4 1007.7 0.2
20/04:00pm 28.1 22.7 6.2 25 11.9 W 24 33 13 18 1009.3 1007.6 0.2
20/03:30pm 26.6 21.5 6.1 27 11.0 W 22 30 12 16 1009.5 1007.8 0.2
20/03:00pm 27.0 22.8 5.9 26 11.4 WNW 17 26 9 14 1010.0 1008.2 0.2
20/02:30pm 28.3 25.4 8.1 28 11.4 NW 13 17 7 9 1010.3 1008.6 0.0
20/02:00pm 26.2 21.9 6.8 29 10.6 NW 19 26 10 14 1010.6 1008.9 0.0
20/01:30pm 27.2 22.6 6.6 27 11.2 NNW 20 28 11 15 1010.7 1009.0 0.0
20/01:00pm 26.3 20.6 4.7 25 11.4 NW 24 32 13 17 1011.2 1009.4 0.0
20/12:30pm 26.6 22.1 6.1 27 11.0 WNW 19 28 10 15 1011.5 1009.8 0.0
20/12:00pm 24.8 20.3 7.0 32 9.7 NW 20 30 11 16 1011.9 1010.2 0.0
20/11:30am 24.4 20.0 7.5 34 9.2 NW 20 28 11 15 1012.3 1010.7 0.0
20/11:00am 22.5 19.0 7.1 37 8.3 NW 15 20 8 11 1012.9 1011.2 0.0
20/10:30am 21.5 18.7 10.0 48 6.5 NNW 15 20 8 11 1013.2 1011.5 0.0
20/10:00am 20.0 17.6 10.1 53 5.5 NNW 13 15 7 8 1013.5 1011.9 0.0
20/09:30am 18.2 16.1 11.0 63 4.0 NNW 13 15 7 8 1014.0 1012.3 0.0
20/09:00am 16.4 14.6 10.9 70 3.1 NNW 11 15 6 8 1014.4 1012.7 0.2
20/08:30am 13.1 11.3 10.8 86 1.3 NW 11 13 6 7 1014.6 1012.9 0.2
20/08:00am 10.8 9.9 10.8 100 0.0 NW 6 9 3 5 1014.6 1012.9 0.2
20/07:30am 8.6 7.0 8.6 100 0.0 NNW 7 9 4 5 1014.5 1012.8 0.2
20/07:00am 8.0 5.5 8.0 100 0.0 NNW 11 13 6 7 1014.5 1012.8 0.2
20/06:30am 7.0 5.2 7.0 100 0.0 WNW 6 9 3 5 1014.7 1013.1 0.2
20/06:00am 7.2 5.2 7.2 100 0.0 NNW 7 9 4 5 1014.2 1012.5 0.2
20/05:30am 8.0 6.2 8.0 100 0.0 NW 7 9 4 5 1014.4 1012.7 0.2
20/05:00am 8.3 6.6 8.3 100 0.0 NW 7 9 4 5 1014.1 1012.4 0.2
20/04:30am 9.0 7.5 9.0 100 0.0 NNW 7 9 4 5 1014.1 1012.4 0.2
20/04:00am 9.6 8.2 9.6 100 0.0 N 7 9 4 5 1014.3 1012.6 0.2
20/03:30am 10.0 9.7 10.0 100 0.0 NW 2 4 1 2 1014.7 1013.1 0.2
20/03:00am 10.0 8.9 10.0 100 0.0 NNW 6 7 3 4 1014.8 1013.2 0.2
20/02:30am 10.4 9.8 10.4 100 0.0 NNW 4 7 2 4 1015.0 1013.4 0.2
20/02:00am 10.2 10.3 10.2 100 0.0 CALM 0 0 0 0 1015.4 1013.7 0.2
20/01:30am 9.7 8.9 9.7 100 0.0 NNW 4 6 2 3 1015.7 1014.0 0.2
20/01:00am 9.0 8.0 9.0 100 0.0 NE 4 6 2 3 1015.7 1014.0 0.0
20/12:30am 9.4 8.5 9.4 100 0.0 E 4 6 2 3 1016.5 1014.9 0.0
20/12:00am 10.4 10.2 10.4 100 0.0 E 2 4 1 2 1016.3 1014.7 0.0
 
Date/Time
EDT
Temp
°C
App
Temp
°C
Dew
Point
Rel
Hum
%
Delta-T
°C
Wind Press
QNH
hPa
Press
MSL
hPa
Rain
since 9 am
mm
Dir
 
Spd
km/h
Gust
km/h
Spd
kts
Gust
kts
19/11:30pm 11.3 11.0 11.3 100 0.0 E 4 6 2 3 1016.5 1014.9 0.0
19/11:00pm 10.9 11.2 10.9 100 0.0 CALM 0 0 0 0 1016.5 1014.9 0.0
19/10:30pm 12.3 13.0 12.3 100 0.0 CALM 0 0 0 0 1016.9 1015.2 0.0
19/10:00pm 13.0 13.9 13.0 100 0.0 CALM 0 0 0 0 1017.1 1015.5 0.0
19/09:30pm 13.3 13.6 13.3 100 0.0 E 4 4 2 2 1017.1 1015.5 0.0

Other Formats:

Comma delimited format used in spreadsheet applications
http://www.bom.gov.au/fwo/IDN60801/IDN60801.94929.axf

JavaScript Object Notation format (JSON) in row-major order
http://www.bom.gov.au/fwo/IDN60801/IDN60801.94929.json